Aviation Digital Data Service (ADDS)

Output produced by METARs form (1226 UTC 08 May 2021)
found at http://aviationweather.gov/metar/data/
 
KMCB 081120Z 0812/0912 VRB03KT P6SM FEW250 
     FM081700 18009KT P6SM FEW250 
     FM091000 18006KT P6SM FEW025